createdAt,value
2019-03-30T00:00:37.479Z,4.00
2019-03-30T00:03:05.990Z,4.01
2019-03-30T00:05:34.484Z,4.03
2019-03-30T00:08:03.041Z,4.03
2019-03-30T00:10:31.512Z,3.94
2019-03-30T00:12:59.997Z,3.89
2019-03-30T00:15:28.507Z,3.94
2019-03-30T00:17:56.953Z,3.89
2019-03-30T00:20:25.417Z,3.88
2019-03-30T00:22:53.872Z,3.80
2019-03-30T00:25:22.350Z,3.77
2019-03-30T00:27:50.830Z,3.72
2019-03-30T00:30:19.474Z,3.75
2019-03-30T00:32:48.077Z,3.68
2019-03-30T00:35:16.608Z,3.68
2019-03-30T00:37:45.049Z,3.71
2019-03-30T00:40:13.610Z,3.79
2019-03-30T00:42:42.190Z,3.72
2019-03-30T00:45:10.819Z,3.73
2019-03-30T00:47:39.267Z,3.68
2019-03-30T00:50:08.298Z,3.71
2019-03-30T00:52:36.767Z,3.76
2019-03-30T00:55:06.750Z,3.69
2019-03-30T00:57:35.203Z,3.59
2019-03-30T01:00:04.834Z,3.68
2019-03-30T01:02:33.274Z,3.62
2019-03-30T01:05:01.799Z,3.62
2019-03-30T01:07:30.364Z,3.60
2019-03-30T01:09:58.863Z,3.57
2019-03-30T01:12:27.315Z,3.54
2019-03-30T01:14:55.812Z,3.51
2019-03-30T01:17:24.303Z,3.48
2019-03-30T01:20:02.666Z,3.52
2019-03-30T01:22:22.929Z,3.51
2019-03-30T01:24:51.407Z,3.50
2019-03-30T01:27:19.876Z,3.54
2019-03-30T01:29:48.347Z,3.48
2019-03-30T01:32:16.901Z,3.39
2019-03-30T01:34:45.370Z,3.37
2019-03-30T01:37:13.843Z,3.37
2019-03-30T01:39:42.319Z,3.23
2019-03-30T01:42:10.782Z,3.28
2019-03-30T01:44:39.250Z,3.27
2019-03-30T01:47:07.726Z,3.27
2019-03-30T01:49:36.209Z,3.21
2019-03-30T01:52:05.340Z,3.25
2019-03-30T01:54:33.866Z,3.24
2019-03-30T01:57:02.328Z,3.22
2019-03-30T01:59:30.813Z,3.21
2019-03-30T02:01:59.258Z,3.21
2019-03-30T02:04:27.784Z,3.15
2019-03-30T02:06:56.435Z,3.13
2019-03-30T02:09:24.906Z,3.16
2019-03-30T02:11:53.371Z,3.15
2019-03-30T02:14:21.935Z,3.10
2019-03-30T02:16:50.380Z,3.07
2019-03-30T02:19:18.906Z,3.08
2019-03-30T02:21:47.352Z,3.07
2019-03-30T02:24:15.837Z,3.09
2019-03-30T02:26:44.307Z,3.12
2019-03-30T02:29:12.788Z,3.16
2019-03-30T02:31:41.295Z,3.06
2019-03-30T02:34:09.769Z,3.04
2019-03-30T02:36:38.244Z,3.04
2019-03-30T02:39:06.785Z,2.98
2019-03-30T02:41:35.249Z,2.96
2019-03-30T02:44:03.907Z,3.01
2019-03-30T02:46:32.370Z,2.97
2019-03-30T02:49:00.867Z,2.94
2019-03-30T02:51:29.322Z,2.93
2019-03-30T02:53:57.902Z,2.95
2019-03-30T02:56:26.329Z,2.88
2019-03-30T02:58:54.799Z,2.87
2019-03-30T03:01:23.263Z,2.86
2019-03-30T03:03:51.758Z,2.86
2019-03-30T03:06:20.221Z,2.87
2019-03-30T03:08:48.745Z,2.89
2019-03-30T03:11:17.196Z,2.78
2019-03-30T03:13:45.707Z,2.78
2019-03-30T03:16:14.164Z,2.74
2019-03-30T03:18:42.803Z,2.83
2019-03-30T03:21:11.260Z,2.75
2019-03-30T03:23:39.741Z,2.67
2019-03-30T03:26:08.181Z,2.68
2019-03-30T03:28:36.668Z,2.63
2019-03-30T03:31:05.157Z,2.64
2019-03-30T03:33:33.705Z,2.71
2019-03-30T03:36:02.216Z,2.68
2019-03-30T03:38:30.708Z,2.59
2019-03-30T03:40:59.150Z,2.56
2019-03-30T03:43:27.665Z,2.71
2019-03-30T03:45:56.132Z,2.71
2019-03-30T03:48:24.611Z,2.61
2019-03-30T03:50:55.990Z,2.50
2019-03-30T03:53:24.542Z,2.46
2019-03-30T03:55:53.982Z,2.58
2019-03-30T03:58:25.611Z,2.55
2019-03-30T04:00:55.649Z,2.56
2019-03-30T04:03:24.686Z,2.57
2019-03-30T04:05:56.339Z,2.51
2019-03-30T04:08:26.350Z,2.47
2019-03-30T04:10:55.485Z,2.46
2019-03-30T04:13:27.141Z,2.49
2019-03-30T04:15:55.691Z,2.47
2019-03-30T04:18:24.175Z,2.38
2019-03-30T04:20:52.988Z,2.24
2019-03-30T04:23:21.477Z,2.35
2019-03-30T04:25:49.918Z,2.62
2019-03-30T04:28:18.412Z,2.60
2019-03-30T04:30:46.882Z,2.53
2019-03-30T04:33:15.373Z,2.38
2019-03-30T04:35:43.839Z,2.25
2019-03-30T04:38:14.408Z,2.38
2019-03-30T04:40:42.473Z,2.40
2019-03-30T04:43:10.965Z,2.42
2019-03-30T04:45:39.448Z,2.42
2019-03-30T04:48:07.992Z,2.41
2019-03-30T04:50:36.449Z,2.27
2019-03-30T04:53:05.064Z,2.28
2019-03-30T04:55:33.536Z,2.18
2019-03-30T04:58:02.014Z,2.30
2019-03-30T05:00:30.494Z,2.28
2019-03-30T05:02:58.988Z,2.33
2019-03-30T05:05:27.548Z,2.27
2019-03-30T05:07:56.082Z,2.32
2019-03-30T05:10:24.515Z,2.40
2019-03-30T05:12:53.011Z,2.44
2019-03-30T05:15:21.465Z,2.38
2019-03-30T05:17:49.960Z,2.31
2019-03-30T05:20:18.452Z,2.39
2019-03-30T05:22:47.026Z,2.41
2019-03-30T05:25:15.469Z,2.37
2019-03-30T05:27:43.970Z,2.47
2019-03-30T05:30:12.961Z,2.45
2019-03-30T05:32:41.997Z,2.46
2019-03-30T05:35:10.860Z,2.58
2019-03-30T05:37:39.476Z,2.57
2019-03-30T05:40:08.756Z,2.64
2019-03-30T05:42:37.256Z,2.64
2019-03-30T05:45:07.333Z,2.78
2019-03-30T05:47:35.853Z,2.78
2019-03-30T05:50:06.333Z,2.77
2019-03-30T05:52:35.740Z,2.78
2019-03-30T05:55:04.640Z,2.88
2019-03-30T05:57:33.185Z,2.95
2019-03-30T06:00:01.612Z,3.04
2019-03-30T06:02:30.117Z,3.14
2019-03-30T06:04:58.915Z,3.24
2019-03-30T06:07:27.524Z,3.37
2019-03-30T06:09:55.996Z,3.46
2019-03-30T06:12:24.512Z,3.61
2019-03-30T06:14:53.025Z,3.71
2019-03-30T06:17:21.478Z,4.33
2019-03-30T06:19:49.937Z,4.69
2019-03-30T06:22:18.429Z,4.69
2019-03-30T06:24:46.892Z,4.66
2019-03-30T06:27:15.468Z,4.93
2019-03-30T06:29:43.924Z,5.07
2019-03-30T06:32:12.512Z,5.56
2019-03-30T06:34:40.993Z,5.89
2019-03-30T06:37:09.483Z,5.92
2019-03-30T06:39:38.059Z,6.14
2019-03-30T06:42:06.584Z,6.35
2019-03-30T06:44:35.062Z,6.46
2019-03-30T06:47:03.605Z,6.66
2019-03-30T06:49:32.097Z,6.87
2019-03-30T06:52:00.593Z,6.89
2019-03-30T06:54:29.126Z,6.90
2019-03-30T06:56:57.576Z,6.88
2019-03-30T06:59:26.202Z,6.95
2019-03-30T07:01:54.653Z,7.03
2019-03-30T07:04:23.175Z,7.19
2019-03-30T07:06:52.784Z,7.21
2019-03-30T07:09:22.803Z,7.36
2019-03-30T07:11:52.417Z,7.44
2019-03-30T07:14:22.781Z,7.72
2019-03-30T07:16:53.319Z,7.62
2019-03-30T07:19:22.865Z,7.84
2019-03-30T07:21:51.302Z,7.96
2019-03-30T07:24:19.788Z,8.22
2019-03-30T07:26:48.233Z,8.39
2019-03-30T07:29:16.733Z,8.50
2019-03-30T07:31:46.599Z,8.56
2019-03-30T07:34:15.170Z,8.59
2019-03-30T07:36:43.615Z,8.74
2019-03-30T07:39:12.095Z,8.98
2019-03-30T07:41:40.550Z,8.97
2019-03-30T07:44:09.405Z,9.21
2019-03-30T07:46:37.886Z,9.29
2019-03-30T07:49:06.372Z,9.58
2019-03-30T07:51:34.854Z,9.53
2019-03-30T07:54:05.938Z,9.61
2019-03-30T07:56:34.463Z,9.71
2019-03-30T07:59:03.001Z,9.69
2019-03-30T08:01:31.444Z,9.77
2019-03-30T08:04:00.318Z,9.93
2019-03-30T08:06:28.803Z,10.21
2019-03-30T08:08:57.287Z,10.38
2019-03-30T08:11:25.795Z,10.56
2019-03-30T08:13:54.309Z,10.56
2019-03-30T08:16:22.775Z,10.77
2019-03-30T08:18:51.258Z,10.98
2019-03-30T08:21:19.831Z,10.78
2019-03-30T08:23:48.345Z,11.01
2019-03-30T08:26:16.877Z,11.19
2019-03-30T08:28:45.358Z,11.27
2019-03-30T08:31:13.844Z,11.45
2019-03-30T08:33:42.340Z,11.63
2019-03-30T08:36:10.813Z,11.66
2019-03-30T08:38:39.287Z,11.77
2019-03-30T08:41:08.258Z,11.78
2019-03-30T08:43:36.730Z,11.88
2019-03-30T08:46:05.273Z,12.21
2019-03-30T08:48:33.777Z,12.17
2019-03-30T08:51:02.270Z,12.40
2019-03-30T08:53:30.787Z,12.44
2019-03-30T08:55:59.266Z,12.44
2019-03-30T08:58:27.749Z,12.66
2019-03-30T09:00:56.230Z,12.79
2019-03-30T09:03:24.709Z,12.94
2019-03-30T09:05:53.226Z,13.06
2019-03-30T09:08:21.695Z,13.26
2019-03-30T09:10:50.174Z,12.92
2019-03-30T09:13:18.688Z,12.82
2019-03-30T09:15:47.160Z,12.94
2019-03-30T09:18:15.699Z,13.14
2019-03-30T09:20:44.181Z,13.39
2019-03-30T09:23:12.697Z,13.41
2019-03-30T09:25:41.261Z,13.42
2019-03-30T09:28:09.796Z,13.43
2019-03-30T09:30:38.283Z,13.73
2019-03-30T09:33:06.776Z,13.80
2019-03-30T09:35:35.240Z,13.90
2019-03-30T09:38:03.743Z,13.98
2019-03-30T09:40:32.228Z,14.13
2019-03-30T09:43:00.710Z,14.46
2019-03-30T09:45:29.273Z,14.17
2019-03-30T09:47:57.840Z,14.02
2019-03-30T09:50:26.317Z,14.15
2019-03-30T09:52:54.825Z,14.70
2019-03-30T09:55:23.298Z,14.82
2019-03-30T09:57:51.791Z,14.95
2019-03-30T10:00:21.835Z,14.82
2019-03-30T10:02:50.311Z,15.04
2019-03-30T10:05:18.778Z,14.83
2019-03-30T10:07:47.309Z,14.92
2019-03-30T10:10:15.789Z,14.82
2019-03-30T10:12:44.376Z,15.14
2019-03-30T10:15:13.876Z,15.10
2019-03-30T10:17:42.377Z,15.77
2019-03-30T10:20:10.820Z,15.76
2019-03-30T10:22:42.008Z,15.72
2019-03-30T10:25:09.625Z,15.46
2019-03-30T10:27:38.127Z,15.59
2019-03-30T10:30:09.126Z,16.19
2019-03-30T10:32:37.636Z,15.82
2019-03-30T10:35:06.959Z,15.95
2019-03-30T10:37:35.450Z,15.78
2019-03-30T10:40:06.330Z,15.84
2019-03-30T10:42:35.192Z,16.19
2019-03-30T10:45:05.780Z,16.69
2019-03-30T10:47:34.283Z,16.82
2019-03-30T10:50:03.109Z,17.56
2019-03-30T10:52:31.594Z,17.76
2019-03-30T10:55:00.082Z,17.38
2019-03-30T10:57:28.562Z,18.01
2019-03-30T10:59:57.026Z,18.34
2019-03-30T11:02:25.588Z,18.41
2019-03-30T11:04:54.092Z,18.88
2019-03-30T11:07:22.582Z,18.56
2019-03-30T11:09:51.027Z,18.94
2019-03-30T11:12:19.595Z,19.47
2019-03-30T11:14:48.042Z,19.42
2019-03-30T11:17:19.327Z,19.84
2019-03-30T11:19:46.796Z,20.88
2019-03-30T11:22:15.289Z,20.78
2019-03-30T11:24:43.852Z,22.22
2019-03-30T11:27:12.336Z,22.99
2019-03-30T11:29:40.792Z,22.66
2019-03-30T11:32:09.286Z,22.87
2019-03-30T11:34:37.754Z,22.58
2019-03-30T11:37:06.382Z,23.04
2019-03-30T11:39:36.592Z,23.00
2019-03-30T11:42:05.180Z,23.67
2019-03-30T11:44:33.638Z,23.01
2019-03-30T11:47:02.488Z,23.45
2019-03-30T11:49:30.984Z,23.85
2019-03-30T11:51:59.451Z,24.14
2019-03-30T11:54:27.978Z,24.24
2019-03-30T11:56:56.491Z,25.11
2019-03-30T11:59:24.937Z,24.91
2019-03-30T12:01:54.408Z,24.89
2019-03-30T12:04:22.866Z,25.71
2019-03-30T12:06:51.955Z,25.94
2019-03-30T12:09:20.621Z,27.18
2019-03-30T12:11:49.162Z,27.30
2019-03-30T12:14:17.604Z,25.40
2019-03-30T12:16:46.084Z,27.36
2019-03-30T12:19:14.519Z,26.41
2019-03-30T12:21:42.999Z,27.35
2019-03-30T12:24:11.430Z,27.45
2019-03-30T12:26:39.979Z,27.84
2019-03-30T12:29:08.411Z,28.29
2019-03-30T12:31:36.954Z,27.48
2019-03-30T12:34:05.403Z,28.60
2019-03-30T12:36:33.883Z,28.02
2019-03-30T12:39:02.599Z,29.01
2019-03-30T12:41:31.071Z,28.69
2019-03-30T12:43:59.511Z,29.06
2019-03-30T12:46:28.050Z,30.36
2019-03-30T12:48:56.492Z,29.48
2019-03-30T12:51:31.439Z,29.52
2019-03-30T12:53:59.898Z,29.23
2019-03-30T12:56:28.482Z,30.08
2019-03-30T12:58:57.019Z,29.06
2019-03-30T13:01:25.511Z,29.39
2019-03-30T13:03:54.026Z,30.09
2019-03-30T13:06:22.541Z,30.03
2019-03-30T13:08:51.096Z,30.03
2019-03-30T13:11:20.101Z,29.53
2019-03-30T13:13:48.634Z,29.59
2019-03-30T13:16:18.309Z,29.57
2019-03-30T13:18:46.921Z,30.06
2019-03-30T13:21:15.375Z,29.29
2019-03-30T13:23:43.863Z,29.81
2019-03-30T13:26:12.312Z,29.09
2019-03-30T13:28:40.797Z,29.92
2019-03-30T13:31:09.243Z,29.63
2019-03-30T13:33:37.807Z,29.99
2019-03-30T13:36:10.482Z,31.54
2019-03-30T13:38:37.828Z,31.29
2019-03-30T13:41:06.267Z,28.98
2019-03-30T13:43:34.806Z,30.08
2019-03-30T13:46:03.294Z,29.12
2019-03-30T13:48:31.779Z,30.34
2019-03-30T13:51:00.221Z,30.16
2019-03-30T13:53:28.712Z,31.03
2019-03-30T13:55:57.162Z,30.91
2019-03-30T13:58:25.631Z,30.97
2019-03-30T14:00:54.101Z,31.22
2019-03-30T14:03:22.590Z,29.50
2019-03-30T14:05:51.039Z,29.69
2019-03-30T14:08:19.546Z,31.16
2019-03-30T14:10:47.994Z,30.75
2019-03-30T14:13:16.503Z,29.72
2019-03-30T14:15:44.950Z,28.27
2019-03-30T14:18:13.451Z,23.52
2019-03-30T14:20:41.900Z,23.10
2019-03-30T14:23:10.388Z,22.78
2019-03-30T14:25:38.895Z,21.76
2019-03-30T14:28:07.582Z,21.41
2019-03-30T14:30:36.121Z,21.26
2019-03-30T14:33:04.641Z,21.13
2019-03-30T14:35:33.145Z,20.52
2019-03-30T14:38:01.662Z,20.32
2019-03-30T14:40:30.120Z,20.53
2019-03-30T14:42:58.800Z,20.53
2019-03-30T14:45:27.245Z,20.00
2019-03-30T14:47:57.863Z,20.03
2019-03-30T14:50:25.873Z,19.86
2019-03-30T14:52:54.405Z,19.95
2019-03-30T14:55:22.868Z,19.85
2019-03-30T14:57:51.395Z,19.77
2019-03-30T15:00:20.046Z,19.72
2019-03-30T15:02:48.839Z,19.66
2019-03-30T15:05:17.383Z,19.54
2019-03-30T15:07:45.876Z,19.35
2019-03-30T15:10:14.353Z,19.30
2019-03-30T15:12:42.850Z,19.33
2019-03-30T15:15:12.145Z,19.28
2019-03-30T15:17:41.352Z,19.23
2019-03-30T15:20:11.143Z,19.24
2019-03-30T15:22:39.621Z,19.31
2019-03-30T15:25:09.985Z,19.04
2019-03-30T15:27:38.580Z,19.03
2019-03-30T15:30:10.075Z,19.04
2019-03-30T15:32:38.572Z,18.93
2019-03-30T15:35:07.998Z,18.78
2019-03-30T15:37:36.483Z,18.88
2019-03-30T15:40:06.564Z,18.81
2019-03-30T15:42:35.128Z,18.77
2019-03-30T15:45:05.409Z,18.73
2019-03-30T15:47:33.918Z,18.61
2019-03-30T15:50:02.524Z,18.54
2019-03-30T15:52:31.033Z,18.54
2019-03-30T15:54:59.504Z,18.41
2019-03-30T15:57:28.013Z,18.39
2019-03-30T15:59:56.542Z,18.39
2019-03-30T16:02:25.062Z,18.32
2019-03-30T16:04:53.521Z,18.38
2019-03-30T16:07:22.083Z,18.19
2019-03-30T16:09:50.600Z,18.12
2019-03-30T16:12:19.206Z,18.16
2019-03-30T16:14:47.672Z,18.10
2019-03-30T16:17:16.161Z,18.00
2019-03-30T16:19:44.643Z,18.02
2019-03-30T16:22:13.315Z,17.96
2019-03-30T16:24:41.796Z,17.77
2019-03-30T16:27:10.278Z,17.77
2019-03-30T16:29:38.748Z,17.81
2019-03-30T16:32:07.235Z,17.71
2019-03-30T16:34:35.763Z,17.61
2019-03-30T16:37:04.237Z,17.45
2019-03-30T16:39:34.822Z,17.37
2019-03-30T16:42:02.970Z,17.33
2019-03-30T16:44:31.413Z,17.16
2019-03-30T16:46:59.911Z,17.01
2019-03-30T16:49:28.457Z,17.03
2019-03-30T16:51:57.613Z,16.91
2019-03-30T16:54:26.088Z,16.81
2019-03-30T16:56:54.575Z,16.75
2019-03-30T16:59:23.053Z,16.58
2019-03-30T17:01:51.565Z,16.61
2019-03-30T17:04:20.039Z,16.52
2019-03-30T17:06:48.515Z,16.23
2019-03-30T17:09:17.005Z,16.20
2019-03-30T17:11:45.480Z,15.96
2019-03-30T17:14:13.958Z,16.04
2019-03-30T17:16:42.434Z,15.98
2019-03-30T17:19:12.482Z,15.83
2019-03-30T17:21:40.949Z,15.79
2019-03-30T17:24:09.427Z,15.69
2019-03-30T17:26:38.012Z,15.47
2019-03-30T17:29:06.506Z,15.35
2019-03-30T17:31:35.053Z,15.15
2019-03-30T17:34:03.530Z,15.18
2019-03-30T17:36:32.013Z,15.03
2019-03-30T17:39:00.494Z,14.70
2019-03-30T17:41:28.972Z,14.64
2019-03-30T17:43:57.443Z,14.37
2019-03-30T17:46:26.037Z,14.10
2019-03-30T17:48:54.576Z,14.10
2019-03-30T17:51:23.099Z,14.16
2019-03-30T17:53:52.343Z,14.08
2019-03-30T17:56:21.035Z,13.72
2019-03-30T17:58:49.621Z,13.33
2019-03-30T18:01:18.209Z,13.47
2019-03-30T18:03:46.680Z,13.46
2019-03-30T18:06:15.209Z,13.33
2019-03-30T18:08:43.708Z,13.01
2019-03-30T18:11:12.190Z,13.08
2019-03-30T18:13:40.747Z,12.74
2019-03-30T18:16:09.542Z,12.59
2019-03-30T18:18:38.027Z,12.43
2019-03-30T18:21:06.532Z,12.38
2019-03-30T18:23:35.031Z,12.44
2019-03-30T18:26:03.508Z,12.32
2019-03-30T18:28:31.982Z,12.33
2019-03-30T18:31:00.575Z,12.15
2019-03-30T18:33:29.319Z,12.08
2019-03-30T18:35:57.973Z,12.04
2019-03-30T18:38:26.610Z,12.06
2019-03-30T18:40:55.172Z,11.83
2019-03-30T18:43:23.645Z,11.78
2019-03-30T18:45:52.176Z,11.74
2019-03-30T18:48:20.637Z,11.45
2019-03-30T18:50:49.570Z,11.53
2019-03-30T18:53:18.282Z,11.36
2019-03-30T18:55:46.767Z,11.38
2019-03-30T18:58:15.221Z,11.35
2019-03-30T19:00:43.735Z,11.13
2019-03-30T19:03:12.203Z,11.08
2019-03-30T19:05:41.316Z,10.87
2019-03-30T19:08:09.759Z,10.95
2019-03-30T19:10:38.384Z,10.88
2019-03-30T19:13:06.890Z,10.97
2019-03-30T19:15:35.397Z,10.99
2019-03-30T19:18:03.928Z,10.87
2019-03-30T19:20:32.434Z,10.85
2019-03-30T19:23:00.902Z,10.80
2019-03-30T19:25:29.840Z,10.56
2019-03-30T19:27:58.605Z,10.22
2019-03-30T19:30:27.241Z,10.38
2019-03-30T19:32:55.692Z,10.19
2019-03-30T19:35:24.287Z,10.09
2019-03-30T19:37:52.782Z,10.17
2019-03-30T19:40:21.467Z,10.06
2019-03-30T19:42:49.923Z,9.92
2019-03-30T19:45:18.414Z,9.91
2019-03-30T19:47:46.881Z,9.67
2019-03-30T19:50:15.431Z,9.85
2019-03-30T19:52:43.913Z,9.75
2019-03-30T19:55:14.109Z,9.63
2019-03-30T19:57:42.571Z,9.83
2019-03-30T20:00:12.763Z,9.60
2019-03-30T20:02:41.224Z,9.48
2019-03-30T20:05:09.786Z,9.42
2019-03-30T20:07:38.281Z,9.57
2019-03-30T20:10:07.024Z,9.77
2019-03-30T20:12:35.723Z,9.86
2019-03-30T20:15:05.482Z,9.89
2019-03-30T20:17:33.933Z,9.88
2019-03-30T20:20:02.424Z,9.56
2019-03-30T20:22:30.898Z,9.38
2019-03-30T20:24:59.426Z,9.51
2019-03-30T20:27:28.005Z,9.66
2019-03-30T20:29:56.580Z,9.49
2019-03-30T20:32:25.041Z,9.69
2019-03-30T20:34:53.576Z,9.76
2019-03-30T20:37:22.014Z,9.60
2019-03-30T21:27:13.699Z,7.41
2019-03-30T21:29:54.079Z,7.36
2019-03-30T21:32:13.314Z,8.95
2019-03-30T21:34:42.689Z,8.87
2019-03-30T21:37:12.123Z,8.87
2019-03-30T21:39:41.554Z,8.94
2019-03-30T21:42:10.961Z,8.92
2019-03-30T21:44:39.518Z,8.92
2019-03-30T21:47:07.987Z,8.82
2019-03-30T21:49:36.446Z,8.57
2019-03-30T21:52:04.978Z,8.83
2019-03-30T21:54:33.438Z,8.42
2019-03-30T21:57:01.966Z,8.47
2019-03-30T21:59:30.423Z,8.35
2019-03-30T22:01:58.936Z,8.33
2019-03-30T22:04:27.373Z,8.50
2019-03-30T22:06:55.976Z,8.47
2019-03-30T22:09:24.411Z,8.56
2019-03-30T22:11:52.910Z,8.50
2019-03-30T22:14:21.380Z,8.19
2019-03-30T22:16:49.866Z,8.42
2019-03-30T22:19:18.344Z,8.48
2019-03-30T22:21:46.897Z,8.48
2019-03-30T22:24:15.643Z,8.06
2019-03-30T22:26:44.136Z,8.12
2019-03-30T22:29:12.671Z,8.06
2019-03-30T22:31:41.233Z,7.86
2019-03-30T22:34:09.680Z,7.87
2019-03-30T22:36:38.186Z,7.89
2019-03-30T22:39:07.033Z,7.87
2019-03-30T22:41:35.531Z,7.94
2019-03-30T22:44:04.266Z,7.90
2019-03-30T22:46:32.756Z,8.06
2019-03-30T22:49:01.277Z,7.83
2019-03-30T22:51:29.766Z,7.79
2019-03-30T22:53:58.221Z,7.88
2019-03-30T22:56:26.713Z,7.73
2019-03-30T22:58:55.252Z,7.78
2019-03-30T23:01:24.582Z,7.71
2019-03-30T23:03:53.033Z,7.83
2019-03-30T23:06:21.582Z,7.59
2019-03-30T23:08:50.081Z,7.39
2019-03-30T23:11:18.563Z,7.44
2019-03-30T23:13:47.085Z,7.49
2019-03-30T23:16:15.656Z,7.49
2019-03-30T23:18:45.497Z,7.32
2019-03-30T23:21:14.113Z,7.17
2019-03-30T23:23:42.554Z,7.17
2019-03-30T23:26:11.439Z,7.13
2019-03-30T23:28:40.185Z,7.18
2019-03-30T23:31:08.665Z,7.08
2019-03-30T23:33:37.139Z,7.05
2019-03-30T23:36:05.638Z,7.01
2019-03-30T23:38:34.138Z,6.95
2019-03-30T23:41:02.668Z,6.94
2019-03-30T23:43:31.125Z,6.86
2019-03-30T23:45:59.595Z,6.79
2019-03-30T23:48:28.056Z,6.91
2019-03-30T23:50:56.525Z,6.86
2019-03-30T23:53:25.008Z,6.82
2019-03-30T23:55:53.540Z,6.76
2019-03-30T23:58:22.001Z,6.86
